sensor_id;sensor_type;location;lat;lon;timestamp;pressure;altitude;pressure_sealevel;temperature;humidity
54389;BME280;40975;50.390;8.640;2023-03-22T00:02:21;98804.63;;;3.82;100.00
54389;BME280;40975;50.390;8.640;2023-03-22T00:04:47;98796.66;;;3.84;100.00
54389;BME280;40975;50.390;8.640;2023-03-22T00:07:13;98794.38;;;3.79;100.00
54389;BME280;40975;50.390;8.640;2023-03-22T00:09:38;98802.00;;;3.82;100.00
54389;BME280;40975;50.390;8.640;2023-03-22T00:12:04;98795.66;;;3.85;100.00
54389;BME280;40975;50.390;8.640;2023-03-22T00:14:29;98792.09;;;3.86;100.00
54389;BME280;40975;50.390;8.640;2023-03-22T00:16:54;98799.97;;;3.86;100.00
54389;BME280;40975;50.390;8.640;2023-03-22T00:19:20;98798.28;;;3.85;100.00
54389;BME280;40975;50.390;8.640;2023-03-22T00:21:46;98790.09;;;3.89;100.00
54389;BME280;40975;50.390;8.640;2023-03-22T00:24:12;98794.28;;;3.92;100.00
54389;BME280;40975;50.390;8.640;2023-03-22T00:26:37;98783.78;;;3.92;100.00
54389;BME280;40975;50.390;8.640;2023-03-22T00:29:03;98785.69;;;3.90;100.00
54389;BME280;40975;50.390;8.640;2023-03-22T00:31:28;98779.72;;;3.88;100.00
54389;BME280;40975;50.390;8.640;2023-03-22T00:33:54;98780.03;;;3.83;100.00
54389;BME280;40975;50.390;8.640;2023-03-22T00:36:19;98778.50;;;3.81;100.00
54389;BME280;40975;50.390;8.640;2023-03-22T00:38:49;98772.16;;;3.83;100.00
54389;BME280;40975;50.390;8.640;2023-03-22T00:41:18;98770.41;;;3.84;100.00
54389;BME280;40975;50.390;8.640;2023-03-22T00:43:45;98762.41;;;3.85;100.00
54389;BME280;40975;50.390;8.640;2023-03-22T00:46:11;98756.81;;;3.90;100.00
54389;BME280;40975;50.390;8.640;2023-03-22T00:48:37;98757.63;;;3.91;100.00
54389;BME280;40975;50.390;8.640;2023-03-22T00:51:03;98745.16;;;3.94;100.00
54389;BME280;40975;50.390;8.640;2023-03-22T00:53:31;98755.53;;;3.96;100.00
54389;BME280;40975;50.390;8.640;2023-03-22T00:56:00;98742.81;;;3.89;100.00
54389;BME280;40975;50.390;8.640;2023-03-22T00:58:30;98747.88;;;3.93;100.00
54389;BME280;40975;50.390;8.640;2023-03-22T01:00:57;98751.22;;;3.95;100.00
54389;BME280;40975;50.390;8.640;2023-03-22T01:03:22;98742.50;;;3.94;100.00
54389;BME280;40975;50.390;8.640;2023-03-22T01:05:51;98744.81;;;3.99;100.00
54389;BME280;40975;50.390;8.640;2023-03-22T01:08:20;98749.81;;;4.02;100.00
54389;BME280;40975;50.390;8.640;2023-03-22T01:10:47;98742.53;;;4.05;100.00
54389;BME280;40975;50.390;8.640;2023-03-22T01:13:12;98752.47;;;4.13;100.00
54389;BME280;40975;50.390;8.640;2023-03-22T01:15:38;98743.66;;;4.14;100.00
54389;BME280;40975;50.390;8.640;2023-03-22T01:18:03;98746.41;;;4.13;100.00
54389;BME280;40975;50.390;8.640;2023-03-22T01:20:29;98743.53;;;4.16;100.00
54389;BME280;40975;50.390;8.640;2023-03-22T01:22:54;98738.88;;;4.19;100.00
54389;BME280;40975;50.390;8.640;2023-03-22T01:25:20;98744.50;;;4.26;100.00
54389;BME280;40975;50.390;8.640;2023-03-22T01:27:45;98742.38;;;4.31;100.00
54389;BME280;40975;50.390;8.640;2023-03-22T01:30:11;98741.53;;;4.31;100.00
54389;BME280;40975;50.390;8.640;2023-03-22T01:32:37;98733.91;;;4.28;100.00
54389;BME280;40975;50.390;8.640;2023-03-22T01:35:04;98726.09;;;4.26;100.00
54389;BME280;40975;50.390;8.640;2023-03-22T01:37:30;98731.50;;;4.25;100.00
54389;BME280;40975;50.390;8.640;2023-03-22T01:39:57;98728.75;;;4.26;100.00
54389;BME280;40975;50.390;8.640;2023-03-22T01:42:23;98733.78;;;4.29;100.00
54389;BME280;40975;50.390;8.640;2023-03-22T01:47:40;98729.00;;;4.23;100.00
54389;BME280;40975;50.390;8.640;2023-03-22T01:50:08;98727.78;;;4.27;100.00
54389;BME280;40975;50.390;8.640;2023-03-22T01:52:35;98722.19;;;4.32;100.00
54389;BME280;40975;50.390;8.640;2023-03-22T01:55:07;98714.91;;;4.35;100.00
54389;BME280;40975;50.390;8.640;2023-03-22T01:57:45;98718.28;;;4.49;100.00
54389;BME280;40975;50.390;8.640;2023-03-22T02:00:16;98715.53;;;4.62;100.00
54389;BME280;40975;50.390;8.640;2023-03-22T02:03:03;98704.22;;;4.73;100.00
54389;BME280;40975;50.390;8.640;2023-03-22T02:05:35;98702.63;;;4.81;100.00
54389;BME280;40975;50.390;8.640;2023-03-22T02:08:01;98701.56;;;4.84;100.00
54389;BME280;40975;50.390;8.640;2023-03-22T02:10:40;98701.91;;;4.91;100.00
54389;BME280;40975;50.390;8.640;2023-03-22T02:16:22;98686.03;;;4.92;100.00
54389;BME280;40975;50.390;8.640;2023-03-22T02:24:47;98681.00;;;4.89;100.00
54389;BME280;40975;50.390;8.640;2023-03-22T02:27:40;98677.41;;;4.79;100.00
54389;BME280;40975;50.390;8.640;2023-03-22T02:30:49;98682.31;;;4.72;100.00
54389;BME280;40975;50.390;8.640;2023-03-22T02:39:06;98671.94;;;4.59;100.00
54389;BME280;40975;50.390;8.640;2023-03-22T02:41:45;98675.06;;;4.53;100.00
54389;BME280;40975;50.390;8.640;2023-03-22T02:44:31;98678.41;;;4.44;100.00
54389;BME280;40975;50.390;8.640;2023-03-22T02:47:27;98689.47;;;4.36;100.00
54389;BME280;40975;50.390;8.640;2023-03-22T02:50:10;98687.94;;;4.33;100.00
54389;BME280;40975;50.390;8.640;2023-03-22T02:52:49;98683.13;;;4.27;100.00
54389;BME280;40975;50.390;8.640;2023-03-22T02:55:23;98682.53;;;4.24;100.00
54389;BME280;40975;50.390;8.640;2023-03-22T02:58:01;98679.09;;;4.23;100.00
54389;BME280;40975;50.390;8.640;2023-03-22T03:00:29;98675.94;;;4.18;100.00
54389;BME280;40975;50.390;8.640;2023-03-22T03:02:59;98674.88;;;4.20;100.00
54389;BME280;40975;50.390;8.640;2023-03-22T03:05:37;98680.13;;;4.20;100.00
54389;BME280;40975;50.390;8.640;2023-03-22T03:08:03;98681.06;;;4.19;100.00
54389;BME280;40975;50.390;8.640;2023-03-22T03:10:32;98683.59;;;4.21;100.00
54389;BME280;40975;50.390;8.640;2023-03-22T03:12:58;98684.34;;;4.23;100.00
54389;BME280;40975;50.390;8.640;2023-03-22T03:15:25;98675.94;;;4.18;100.00
54389;BME280;40975;50.390;8.640;2023-03-22T03:18:16;98671.53;;;4.07;100.00
54389;BME280;40975;50.390;8.640;2023-03-22T03:23:34;98669.13;;;4.04;100.00
54389;BME280;40975;50.390;8.640;2023-03-22T03:26:12;98665.69;;;4.03;100.00
54389;BME280;40975;50.390;8.640;2023-03-22T03:29:02;98660.75;;;4.10;100.00
54389;BME280;40975;50.390;8.640;2023-03-22T03:31:30;98658.03;;;4.12;100.00
54389;BME280;40975;50.390;8.640;2023-03-22T03:36:35;98663.28;;;4.12;100.00
54389;BME280;40975;50.390;8.640;2023-03-22T03:39:05;98663.03;;;4.15;100.00
54389;BME280;40975;50.390;8.640;2023-03-22T03:41:33;98654.34;;;4.14;100.00
54389;BME280;40975;50.390;8.640;2023-03-22T03:43:59;98656.97;;;4.14;100.00
54389;BME280;40975;50.390;8.640;2023-03-22T03:46:25;98651.84;;;4.13;100.00
54389;BME280;40975;50.390;8.640;2023-03-22T03:48:55;98652.88;;;4.10;100.00
54389;BME280;40975;50.390;8.640;2023-03-22T03:51:21;98638.44;;;4.04;100.00
54389;BME280;40975;50.390;8.640;2023-03-22T03:53:47;98640.47;;;4.01;100.00
54389;BME280;40975;50.390;8.640;2023-03-22T03:56:13;98643.44;;;3.96;100.00
54389;BME280;40975;50.390;8.640;2023-03-22T03:58:43;98640.44;;;3.89;100.00
54389;BME280;40975;50.390;8.640;2023-03-22T04:01:08;98641.75;;;3.84;100.00
54389;BME280;40975;50.390;8.640;2023-03-22T04:03:36;98651.75;;;3.79;100.00
54389;BME280;40975;50.390;8.640;2023-03-22T04:06:02;98648.66;;;3.73;100.00
54389;BME280;40975;50.390;8.640;2023-03-22T04:08:31;98651.50;;;3.70;100.00
54389;BME280;40975;50.390;8.640;2023-03-22T04:10:56;98645.28;;;3.71;100.00
54389;BME280;40975;50.390;8.640;2023-03-22T04:13:22;98642.41;;;3.63;100.00
54389;BME280;40975;50.390;8.640;2023-03-22T04:15:53;98644.69;;;3.68;100.00
54389;BME280;40975;50.390;8.640;2023-03-22T04:18:20;98632.75;;;3.64;100.00
54389;BME280;40975;50.390;8.640;2023-03-22T04:20:46;98633.47;;;3.66;100.00
54389;BME280;40975;50.390;8.640;2023-03-22T04:23:14;98626.41;;;3.66;100.00
54389;BME280;40975;50.390;8.640;2023-03-22T04:25:39;98632.28;;;3.70;100.00
54389;BME280;40975;50.390;8.640;2023-03-22T04:28:09;98628.44;;;3.63;100.00
54389;BME280;40975;50.390;8.640;2023-03-22T04:30:34;98628.91;;;3.56;100.00
54389;BME280;40975;50.390;8.640;2023-03-22T04:33:37;98631.88;;;3.52;100.00
54389;BME280;40975;50.390;8.640;2023-03-22T04:36:17;98625.78;;;3.51;100.00
54389;BME280;40975;50.390;8.640;2023-03-22T04:39:09;98617.19;;;3.49;100.00
54389;BME280;40975;50.390;8.640;2023-03-22T04:41:36;98623.63;;;3.45;100.00
54389;BME280;40975;50.390;8.640;2023-03-22T04:44:02;98618.97;;;3.49;100.00
54389;BME280;40975;50.390;8.640;2023-03-22T04:46:31;98615.75;;;3.45;100.00
54389;BME280;40975;50.390;8.640;2023-03-22T04:49:02;98612.25;;;3.45;100.00
54389;BME280;40975;50.390;8.640;2023-03-22T04:51:31;98610.63;;;3.44;100.00
54389;BME280;40975;50.390;8.640;2023-03-22T04:54:19;98611.59;;;3.30;100.00
54389;BME280;40975;50.390;8.640;2023-03-22T04:56:44;98615.69;;;3.34;100.00
54389;BME280;40975;50.390;8.640;2023-03-22T04:59:11;98610.66;;;3.31;100.00
54389;BME280;40975;50.390;8.640;2023-03-22T05:01:36;98606.50;;;3.28;100.00
54389;BME280;40975;50.390;8.640;2023-03-22T05:04:09;98613.41;;;3.29;100.00
54389;BME280;40975;50.390;8.640;2023-03-22T05:06:35;98617.31;;;3.23;100.00
54389;BME280;40975;50.390;8.640;2023-03-22T05:09:16;98617.53;;;3.20;100.00
54389;BME280;40975;50.390;8.640;2023-03-22T05:11:41;98620.16;;;3.20;100.00
54389;BME280;40975;50.390;8.640;2023-03-22T05:14:19;98616.19;;;3.15;100.00
54389;BME280;40975;50.390;8.640;2023-03-22T05:16:44;98628.28;;;3.17;100.00
54389;BME280;40975;50.390;8.640;2023-03-22T05:19:10;98627.06;;;3.21;100.00
54389;BME280;40975;50.390;8.640;2023-03-22T05:21:41;98624.78;;;3.17;100.00
54389;BME280;40975;50.390;8.640;2023-03-22T05:24:08;98621.44;;;3.15;100.00
54389;BME280;40975;50.390;8.640;2023-03-22T05:26:34;98615.59;;;3.11;100.00
54389;BME280;40975;50.390;8.640;2023-03-22T05:29:03;98619.88;;;3.12;100.00
54389;BME280;40975;50.390;8.640;2023-03-22T05:31:43;98618.06;;;3.01;100.00
54389;BME280;40975;50.390;8.640;2023-03-22T05:34:08;98622.56;;;2.99;100.00
54389;BME280;40975;50.390;8.640;2023-03-22T05:36:36;98622.97;;;3.06;100.00
54389;BME280;40975;50.390;8.640;2023-03-22T05:39:12;98630.28;;;3.14;100.00
54389;BME280;40975;50.390;8.640;2023-03-22T05:41:40;98628.88;;;3.21;100.00
54389;BME280;40975;50.390;8.640;2023-03-22T05:44:05;98626.41;;;3.31;100.00
54389;BME280;40975;50.390;8.640;2023-03-22T05:46:32;98628.13;;;3.43;100.00
54389;BME280;40975;50.390;8.640;2023-03-22T05:49:17;98613.50;;;3.52;100.00
54389;BME280;40975;50.390;8.640;2023-03-22T05:51:43;98625.97;;;3.72;100.00
54389;BME280;40975;50.390;8.640;2023-03-22T05:54:10;98627.56;;;3.86;100.00
54389;BME280;40975;50.390;8.640;2023-03-22T05:56:41;98625.91;;;3.97;100.00
54389;BME280;40975;50.390;8.640;2023-03-22T05:59:09;98621.38;;;3.99;100.00
54389;BME280;40975;50.390;8.640;2023-03-22T06:01:34;98632.09;;;3.96;100.00
54389;BME280;40975;50.390;8.640;2023-03-22T06:04:21;98614.44;;;3.86;100.00
54389;BME280;40975;50.390;8.640;2023-03-22T06:06:59;98613.84;;;3.94;100.00
54389;BME280;40975;50.390;8.640;2023-03-22T06:09:51;98601.56;;;3.95;100.00
54389;BME280;40975;50.390;8.640;2023-03-22T06:12:20;98595.22;;;3.97;100.00
54389;BME280;40975;50.390;8.640;2023-03-22T06:14:53;98599.88;;;3.94;100.00
54389;BME280;40975;50.390;8.640;2023-03-22T06:17:33;98614.47;;;4.09;100.00
54389;BME280;40975;50.390;8.640;2023-03-22T06:19:59;98618.75;;;4.22;100.00
54389;BME280;40975;50.390;8.640;2023-03-22T06:22:25;98616.63;;;4.38;100.00
54389;BME280;40975;50.390;8.640;2023-03-22T06:24:51;98627.84;;;4.51;100.00
54389;BME280;40975;50.390;8.640;2023-03-22T06:27:25;98619.81;;;4.64;100.00
54389;BME280;40975;50.390;8.640;2023-03-22T06:29:50;98625.34;;;4.73;100.00
54389;BME280;40975;50.390;8.640;2023-03-22T06:32:21;98625.06;;;4.87;100.00
54389;BME280;40975;50.390;8.640;2023-03-22T06:34:55;98629.78;;;5.05;100.00
54389;BME280;40975;50.390;8.640;2023-03-22T06:37:22;98639.34;;;5.17;100.00
54389;BME280;40975;50.390;8.640;2023-03-22T06:39:48;98637.59;;;5.39;100.00
54389;BME280;40975;50.390;8.640;2023-03-22T06:42:15;98634.69;;;5.53;100.00
54389;BME280;40975;50.390;8.640;2023-03-22T06:44:43;98613.53;;;5.65;100.00
54389;BME280;40975;50.390;8.640;2023-03-22T06:47:16;98630.34;;;6.06;100.00
54389;BME280;40975;50.390;8.640;2023-03-22T06:50:04;98634.81;;;6.36;100.00
54389;BME280;40975;50.390;8.640;2023-03-22T06:52:51;98640.91;;;6.68;100.00
54389;BME280;40975;50.390;8.640;2023-03-22T06:55:16;98631.75;;;7.23;100.00
54389;BME280;40975;50.390;8.640;2023-03-22T06:57:42;98639.34;;;8.04;100.00
54389;BME280;40975;50.390;8.640;2023-03-22T07:00:08;98638.13;;;9.12;100.00
54389;BME280;40975;50.390;8.640;2023-03-22T07:02:34;98643.25;;;9.86;100.00
54389;BME280;40975;50.390;8.640;2023-03-22T07:05:18;98638.22;;;10.53;100.00
54389;BME280;40975;50.390;8.640;2023-03-22T07:07:43;98639.84;;;10.81;100.00
54389;BME280;40975;50.390;8.640;2023-03-22T07:10:10;98643.31;;;11.16;100.00
54389;BME280;40975;50.390;8.640;2023-03-22T07:12:36;98650.13;;;11.35;100.00
54389;BME280;40975;50.390;8.640;2023-03-22T07:15:07;98651.91;;;11.18;100.00
54389;BME280;40975;50.390;8.640;2023-03-22T07:17:56;98646.47;;;11.28;100.00
54389;BME280;40975;50.390;8.640;2023-03-22T07:20:21;98651.25;;;11.08;100.00
54389;BME280;40975;50.390;8.640;2023-03-22T07:22:49;98639.59;;;11.00;100.00
54389;BME280;40975;50.390;8.640;2023-03-22T07:25:15;98638.22;;;10.88;100.00
54389;BME280;40975;50.390;8.640;2023-03-22T07:27:41;98629.53;;;11.12;100.00
54389;BME280;40975;50.390;8.640;2023-03-22T07:30:07;98631.34;;;11.28;100.00
54389;BME280;40975;50.390;8.640;2023-03-22T07:32:40;98623.06;;;11.31;100.00
54389;BME280;40975;50.390;8.640;2023-03-22T07:35:09;98620.03;;;11.18;100.00
54389;BME280;40975;50.390;8.640;2023-03-22T07:37:35;98632.88;;;11.39;100.00
54389;BME280;40975;50.390;8.640;2023-03-22T07:40:03;98618.28;;;11.51;100.00
54389;BME280;40975;50.390;8.640;2023-03-22T07:42:30;98618.25;;;11.43;100.00
54389;BME280;40975;50.390;8.640;2023-03-22T07:45:21;98629.56;;;11.45;100.00
54389;BME280;40975;50.390;8.640;2023-03-22T07:48:22;98625.31;;;12.02;100.00
54389;BME280;40975;50.390;8.640;2023-03-22T07:51:04;98621.41;;;12.29;100.00
54389;BME280;40975;50.390;8.640;2023-03-22T07:53:30;98611.59;;;12.38;100.00
54389;BME280;40975;50.390;8.640;2023-03-22T07:55:56;98610.78;;;12.78;100.00
54389;BME280;40975;50.390;8.640;2023-03-22T07:58:21;98606.97;;;13.03;98.90
54389;BME280;40975;50.390;8.640;2023-03-22T08:00:46;98610.81;;;13.01;97.56
54389;BME280;40975;50.390;8.640;2023-03-22T08:03:42;98606.16;;;12.71;97.10
54389;BME280;40975;50.390;8.640;2023-03-22T08:06:26;98614.81;;;12.65;95.92
54389;BME280;40975;50.390;8.640;2023-03-22T08:08:51;98620.94;;;12.74;95.48
54389;BME280;40975;50.390;8.640;2023-03-22T08:11:17;98606.63;;;13.06;94.27
54389;BME280;40975;50.390;8.640;2023-03-22T08:13:43;98616.63;;;13.82;90.25
54389;BME280;40975;50.390;8.640;2023-03-22T08:16:09;98621.88;;;14.89;86.28
54389;BME280;40975;50.390;8.640;2023-03-22T08:18:35;98613.38;;;16.09;79.59
54389;BME280;40975;50.390;8.640;2023-03-22T08:21:01;98606.22;;;17.42;73.50
54389;BME280;40975;50.390;8.640;2023-03-22T08:23:29;98617.06;;;16.01;71.22
54389;BME280;40975;50.390;8.640;2023-03-22T08:25:54;98604.19;;;14.28;77.37
54389;BME280;40975;50.390;8.640;2023-03-22T08:28:20;98612.00;;;13.53;83.36
54389;BME280;40975;50.390;8.640;2023-03-22T08:30:49;98622.06;;;13.51;84.10
54389;BME280;40975;50.390;8.640;2023-03-22T08:33:14;98612.38;;;14.26;80.20
54389;BME280;40975;50.390;8.640;2023-03-22T08:35:41;98623.19;;;13.95;79.86
54389;BME280;40975;50.390;8.640;2023-03-22T08:38:07;98612.97;;;15.83;74.83
54389;BME280;40975;50.390;8.640;2023-03-22T08:40:40;98605.09;;;16.32;69.55
54389;BME280;40975;50.390;8.640;2023-03-22T08:43:05;98594.97;;;16.27;70.54
54389;BME280;40975;50.390;8.640;2023-03-22T08:45:31;98606.50;;;14.76;72.14
54389;BME280;40975;50.390;8.640;2023-03-22T08:48:06;98597.22;;;13.89;78.83
54389;BME280;40975;50.390;8.640;2023-03-22T08:50:46;98601.44;;;14.51;79.51
54389;BME280;40975;50.390;8.640;2023-03-22T08:53:20;98600.59;;;14.81;76.51
54389;BME280;40975;50.390;8.640;2023-03-22T08:55:53;98589.59;;;16.21;72.83
54389;BME280;40975;50.390;8.640;2023-03-22T08:58:35;98582.03;;;18.49;61.48
54389;BME280;40975;50.390;8.640;2023-03-22T09:01:23;98582.28;;;18.27;61.50
54389;BME280;40975;50.390;8.640;2023-03-22T09:03:56;98580.44;;;17.81;64.97
54389;BME280;40975;50.390;8.640;2023-03-22T09:06:22;98569.84;;;19.63;58.73
54389;BME280;40975;50.390;8.640;2023-03-22T09:08:48;98569.03;;;21.06;54.12
54389;BME280;40975;50.390;8.640;2023-03-22T09:11:19;98580.50;;;20.45;52.42
54389;BME280;40975;50.390;8.640;2023-03-22T09:13:47;98594.69;;;19.65;53.89
54389;BME280;40975;50.390;8.640;2023-03-22T09:16:12;98578.13;;;19.36;55.59
54389;BME280;40975;50.390;8.640;2023-03-22T09:18:39;98574.34;;;19.11;56.50
54389;BME280;40975;50.390;8.640;2023-03-22T09:21:11;98591.97;;;17.48;57.79
54389;BME280;40975;50.390;8.640;2023-03-22T09:23:57;98583.31;;;17.52;61.42
54389;BME280;40975;50.390;8.640;2023-03-22T09:26:33;98576.91;;;17.47;59.92
54389;BME280;40975;50.390;8.640;2023-03-22T09:28:59;98586.19;;;16.05;63.09
54389;BME280;40975;50.390;8.640;2023-03-22T09:31:25;98578.69;;;15.44;68.02
54389;BME280;40975;50.390;8.640;2023-03-22T09:34:03;98573.38;;;15.72;66.93
54389;BME280;40975;50.390;8.640;2023-03-22T09:36:29;98572.81;;;15.83;64.83
54389;BME280;40975;50.390;8.640;2023-03-22T09:38:57;98575.38;;;15.42;65.09
54389;BME280;40975;50.390;8.640;2023-03-22T09:43:57;98566.16;;;15.94;64.96
54389;BME280;40975;50.390;8.640;2023-03-22T09:46:30;98566.22;;;16.08;63.44
54389;BME280;40975;50.390;8.640;2023-03-22T09:49:00;98567.25;;;15.57;64.90
54389;BME280;40975;50.390;8.640;2023-03-22T09:51:37;98569.00;;;14.84;67.15
54389;BME280;40975;50.390;8.640;2023-03-22T09:54:13;98559.44;;;15.55;67.82
54389;BME280;40975;50.390;8.640;2023-03-22T09:56:39;98560.75;;;16.16;68.31
54389;BME280;40975;50.390;8.640;2023-03-22T09:59:19;98561.72;;;16.08;67.39
54389;BME280;40975;50.390;8.640;2023-03-22T10:01:58;98562.50;;;15.52;69.00
54389;BME280;40975;50.390;8.640;2023-03-22T10:04:47;98554.53;;;15.59;67.47
54389;BME280;40975;50.390;8.640;2023-03-22T10:07:31;98552.59;;;15.52;67.95
54389;BME280;40975;50.390;8.640;2023-03-22T10:12:59;98549.69;;;15.69;66.21
54389;BME280;40975;50.390;8.640;2023-03-22T10:15:38;98544.19;;;15.05;66.58
54389;BME280;40975;50.390;8.640;2023-03-22T10:18:12;98561.28;;;14.59;70.31
54389;BME280;40975;50.390;8.640;2023-03-22T10:20:45;98546.53;;;14.64;73.66
54389;BME280;40975;50.390;8.640;2023-03-22T10:23:29;98547.69;;;14.24;73.58
54389;BME280;40975;50.390;8.640;2023-03-22T10:25:57;98549.94;;;13.82;74.98
54389;BME280;40975;50.390;8.640;2023-03-22T10:28:33;98555.97;;;14.14;75.81
54389;BME280;40975;50.390;8.640;2023-03-22T10:31:01;98552.16;;;13.79;76.83
54389;BME280;40975;50.390;8.640;2023-03-22T10:33:37;98561.38;;;13.53;77.88
54389;BME280;40975;50.390;8.640;2023-03-22T10:36:05;98548.34;;;13.58;77.94
54389;BME280;40975;50.390;8.640;2023-03-22T10:38:33;98558.38;;;13.71;77.62
54389;BME280;40975;50.390;8.640;2023-03-22T10:41:01;98565.44;;;14.32;76.40
54389;BME280;40975;50.390;8.640;2023-03-22T10:43:34;98562.41;;;14.35;76.94
54389;BME280;40975;50.390;8.640;2023-03-22T10:46:02;98553.66;;;14.26;77.36
54389;BME280;40975;50.390;8.640;2023-03-22T10:48:38;98564.94;;;14.88;75.65
54389;BME280;40975;50.390;8.640;2023-03-22T10:51:05;98563.56;;;14.77;74.22
54389;BME280;40975;50.390;8.640;2023-03-22T10:53:39;98571.22;;;15.17;74.69
54389;BME280;40975;50.390;8.640;2023-03-22T10:56:13;98567.16;;;15.21;74.41
54389;BME280;40975;50.390;8.640;2023-03-22T10:58:40;98560.88;;;14.92;73.43
54389;BME280;40975;50.390;8.640;2023-03-22T11:01:14;98570.13;;;16.05;69.17
54389;BME280;40975;50.390;8.640;2023-03-22T11:03:49;98559.16;;;16.28;66.92
54389;BME280;40975;50.390;8.640;2023-03-22T11:06:18;98561.53;;;15.60;66.31
54389;BME280;40975;50.390;8.640;2023-03-22T11:08:52;98558.78;;;15.96;68.05
54389;BME280;40975;50.390;8.640;2023-03-22T11:13:57;98544.47;;;17.01;61.77
54389;BME280;40975;50.390;8.640;2023-03-22T11:16:23;98538.88;;;16.96;59.91
54389;BME280;40975;50.390;8.640;2023-03-22T11:18:49;98546.78;;;17.24;60.23
54389;BME280;40975;50.390;8.640;2023-03-22T11:21:16;98538.91;;;17.23;59.53
54389;BME280;40975;50.390;8.640;2023-03-22T11:23:50;98530.97;;;16.88;61.32
54389;BME280;40975;50.390;8.640;2023-03-22T11:26:28;98527.78;;;16.51;61.03
54389;BME280;40975;50.390;8.640;2023-03-22T11:29:01;98525.69;;;16.46;62.99
54389;BME280;40975;50.390;8.640;2023-03-22T11:32:18;98515.50;;;16.83;61.38
54389;BME280;40975;50.390;8.640;2023-03-22T11:34:32;98521.81;;;16.55;63.10
54389;BME280;40975;50.390;8.640;2023-03-22T11:37:00;98511.09;;;16.62;62.24
54389;BME280;40975;50.390;8.640;2023-03-22T11:39:31;98513.94;;;16.96;61.93
54389;BME280;40975;50.390;8.640;2023-03-22T11:41:58;98517.06;;;17.33;61.41
54389;BME280;40975;50.390;8.640;2023-03-22T11:44:27;98522.59;;;17.04;61.35
54389;BME280;40975;50.390;8.640;2023-03-22T11:47:00;98503.91;;;16.14;62.63
54389;BME280;40975;50.390;8.640;2023-03-22T11:49:34;98502.94;;;16.84;62.97
54389;BME280;40975;50.390;8.640;2023-03-22T11:52:28;98513.66;;;16.90;60.68
54389;BME280;40975;50.390;8.640;2023-03-22T11:54:54;98513.19;;;16.67;59.16
54389;BME280;40975;50.390;8.640;2023-03-22T11:57:30;98497.47;;;16.50;59.50
54389;BME280;40975;50.390;8.640;2023-03-22T12:00:04;98487.13;;;17.02;59.13
54389;BME280;40975;50.390;8.640;2023-03-22T12:02:40;98510.47;;;17.15;58.86
54389;BME280;40975;50.390;8.640;2023-03-22T12:05:16;98506.97;;;17.35;57.85
54389;BME280;40975;50.390;8.640;2023-03-22T12:07:43;98507.34;;;16.98;58.40
54389;BME280;40975;50.390;8.640;2023-03-22T12:10:18;98498.72;;;17.36;58.45
54389;BME280;40975;50.390;8.640;2023-03-22T12:12:49;98497.47;;;17.39;58.47
54389;BME280;40975;50.390;8.640;2023-03-22T12:15:17;98489.19;;;17.07;59.99
54389;BME280;40975;50.390;8.640;2023-03-22T12:17:44;98492.72;;;17.14;59.21
54389;BME280;40975;50.390;8.640;2023-03-22T12:20:21;98495.47;;;16.72;58.67
54389;BME280;40975;50.390;8.640;2023-03-22T12:22:53;98496.47;;;16.58;59.09
54389;BME280;40975;50.390;8.640;2023-03-22T12:25:24;98501.78;;;17.13;58.28
54389;BME280;40975;50.390;8.640;2023-03-22T12:27:57;98490.47;;;17.71;57.04
54389;BME280;40975;50.390;8.640;2023-03-22T12:30:26;98486.53;;;17.67;55.95
54389;BME280;40975;50.390;8.640;2023-03-22T12:33:36;98495.81;;;17.45;56.51
54389;BME280;40975;50.390;8.640;2023-03-22T12:36:02;98494.16;;;17.23;56.03
54389;BME280;40975;50.390;8.640;2023-03-22T12:38:45;98482.22;;;17.33;56.64
54389;BME280;40975;50.390;8.640;2023-03-22T12:41:31;98479.50;;;17.13;56.57
54389;BME280;40975;50.390;8.640;2023-03-22T12:44:02;98472.91;;;17.22;55.58
54389;BME280;40975;50.390;8.640;2023-03-22T12:46:35;98473.13;;;17.27;55.92
54389;BME280;40975;50.390;8.640;2023-03-22T12:49:12;98466.75;;;17.28;55.79
54389;BME280;40975;50.390;8.640;2023-03-22T12:51:43;98460.72;;;17.53;55.44
54389;BME280;40975;50.390;8.640;2023-03-22T12:54:12;98466.72;;;17.68;55.78
54389;BME280;40975;50.390;8.640;2023-03-22T12:56:42;98456.59;;;17.64;55.31
54389;BME280;40975;50.390;8.640;2023-03-22T12:59:17;98463.41;;;17.73;56.71
54389;BME280;40975;50.390;8.640;2023-03-22T13:01:49;98468.16;;;17.04;56.69
54389;BME280;40975;50.390;8.640;2023-03-22T13:09:40;98447.66;;;16.69;55.80
54389;BME280;40975;50.390;8.640;2023-03-22T13:17:31;98448.97;;;17.61;55.75
54389;BME280;40975;50.390;8.640;2023-03-22T13:20:19;98435.56;;;17.47;54.81
54389;BME280;40975;50.390;8.640;2023-03-22T13:28:03;98423.75;;;16.74;56.04
54389;BME280;40975;50.390;8.640;2023-03-22T13:30:49;98426.66;;;16.79;56.71
54389;BME280;40975;50.390;8.640;2023-03-22T13:35:48;98421.56;;;17.32;57.60
54389;BME280;40975;50.390;8.640;2023-03-22T13:38:36;98423.16;;;17.60;56.91
54389;BME280;40975;50.390;8.640;2023-03-22T13:41:15;98421.09;;;17.68;54.58
54389;BME280;40975;50.390;8.640;2023-03-22T13:43:52;98411.00;;;17.57;54.13
54389;BME280;40975;50.390;8.640;2023-03-22T13:51:20;98410.16;;;17.70;54.08
54389;BME280;40975;50.390;8.640;2023-03-22T13:54:09;98401.94;;;17.51;55.75
54389;BME280;40975;50.390;8.640;2023-03-22T13:59:11;98398.25;;;17.05;55.83
54389;BME280;40975;50.390;8.640;2023-03-22T14:01:47;98396.16;;;16.81;56.03
54389;BME280;40975;50.390;8.640;2023-03-22T14:04:20;98396.75;;;16.62;56.84
54389;BME280;40975;50.390;8.640;2023-03-22T14:09:42;98395.63;;;16.23;56.71
54389;BME280;40975;50.390;8.640;2023-03-22T14:12:18;98406.25;;;16.03;58.11
54389;BME280;40975;50.390;8.640;2023-03-22T14:14:49;98400.03;;;15.96;58.20
54389;BME280;40975;50.390;8.640;2023-03-22T14:17:43;98398.78;;;15.85;58.56
54389;BME280;40975;50.390;8.640;2023-03-22T14:20:16;98407.53;;;15.72;59.48
54389;BME280;40975;50.390;8.640;2023-03-22T14:22:47;98402.75;;;15.67;59.11
54389;BME280;40975;50.390;8.640;2023-03-22T14:25:21;98392.97;;;15.46;58.73